Time;durP1;ratioP1;P1;durP2;ratioP2;P2;SDS_P1;SDS_P2;PMS_P1;PMS_P2;Temp;Humidity;BMP_temperature;BMP_pressure;BME280_temperature;BME280_humidity;BME280_pressure;Samples;Min_cycle;Max_cycle;Signal;HPM_P1;HPM_P2
2021/12/04 00:00:50;;;;;;;18.55;9.98;;;;;;;1.20;54.11;99668.41;7711134;32;40870;-79
2021/12/04 00:05:07;;;;;;;13.77;8.73;;;;;;;1.38;53.09;99649.75;7709484;32;39213;-80
2021/12/04 00:09:24;;;;;;;13.00;7.32;;;;;;;1.00;54.13;99647.84;7710778;32;37123;-80
2021/12/04 00:13:40;;;;;;;15.00;8.02;;;;;;;0.93;54.40;99647.03;7710790;32;38460;-80
2021/12/04 00:17:59;;;;;;;13.07;8.35;;;;;;;0.59;55.22;99651.69;7709787;32;40843;-79
2021/12/04 00:22:15;;;;;;;15.60;8.68;;;;;;;0.69;54.43;99637.81;7710161;32;37618;-80
2021/12/04 00:26:32;;;;;;;11.63;7.15;;;;;;;0.72;54.43;99635.53;7711138;32;37514;-80
2021/12/04 00:30:49;;;;;;;17.52;8.93;;;;;;;0.74;54.20;99627.28;7711093;32;39250;-80
2021/12/04 00:49:09;;;;;;;18.08;8.63;;;;;;;0.78;54.54;99636.56;7710859;32;39908;-79
2021/12/04 00:53:26;;;;;;;12.07;7.50;;;;;;;0.78;54.49;99639.25;7710662;32;39721;-80
2021/12/04 00:57:42;;;;;;;14.43;7.45;;;;;;;0.73;53.89;99639.06;7709173;32;37869;-80
2021/12/04 01:01:58;;;;;;;14.23;7.97;;;;;;;0.88;53.45;99645.00;7710540;32;37159;-80
2021/12/04 01:06:14;;;;;;;15.10;7.87;;;;;;;0.78;53.71;99628.53;7710240;32;40135;-81
2021/12/04 01:10:31;;;;;;;17.35;8.55;;;;;;;0.65;54.18;99640.09;7710034;32;40878;-80
2021/12/04 01:14:47;;;;;;;16.90;7.87;;;;;;;0.70;53.89;99629.56;7709963;32;37810;-80
2021/12/04 01:19:04;;;;;;;10.20;7.25;;;;;;;0.67;54.01;99627.31;7709996;32;37090;-80
2021/12/04 01:23:20;;;;;;;13.43;7.72;;;;;;;0.45;54.48;99634.78;7709855;32;39275;-80
2021/12/04 01:27:39;;;;;;;13.32;7.47;;;;;;;0.52;53.93;99635.59;7710103;32;38199;-80
2021/12/04 01:31:55;;;;;;;12.75;7.87;;;;;;;0.30;54.32;99620.78;7709673;32;38586;-79
2021/12/04 01:36:11;;;;;;;11.55;6.95;;;;;;;0.32;54.97;99626.75;7709539;32;37156;-80
2021/12/04 01:40:27;;;;;;;11.25;7.40;;;;;;;0.44;54.49;99621.59;7708422;32;39840;-80
2021/12/04 01:44:44;;;;;;;13.35;8.10;;;;;;;0.26;55.47;99632.94;7709316;32;39642;-80
2021/12/04 01:49:00;;;;;;;12.75;8.27;;;;;;;0.28;55.83;99622.88;7709105;32;38601;-80
2021/12/04 01:53:16;;;;;;;13.62;7.75;;;;;;;0.61;54.86;99617.41;7712242;32;37357;-80
2021/12/04 01:57:32;;;;;;;16.27;8.32;;;;;;;0.59;54.72;99608.75;7712834;32;40074;-80
2021/12/04 02:01:49;;;;;;;14.87;8.18;;;;;;;0.62;55.45;99604.81;7711638;32;39884;-80
2021/12/04 02:06:05;;;;;;;12.73;7.85;;;;;;;0.32;56.03;99598.09;7711407;32;37655;-80
2021/12/04 02:10:21;;;;;;;13.98;7.97;;;;;;;0.53;55.49;99594.31;7712312;32;36898;-80
2021/12/04 02:14:40;;;;;;;11.55;7.35;;;;;;;0.59;55.58;99576.56;7712726;32;39909;-80
2021/12/04 02:18:56;;;;;;;12.52;7.45;;;;;;;0.60;55.00;99572.84;7712603;32;40010;-80
2021/12/04 02:23:13;;;;;;;10.90;7.30;;;;;;;0.41;55.30;99579.91;7712690;32;38559;-79
2021/12/04 02:27:29;;;;;;;10.27;6.15;;;;;;;0.07;55.97;99572.97;7712617;32;37173;-80
2021/12/04 02:31:55;;;;;;;11.32;7.28;;;;;;;0.02;56.04;99568.25;7712429;32;39392;-80
2021/12/04 02:36:12;;;;;;;12.93;7.25;;;;;;;-0.15;56.16;99570.53;7711292;32;39973;-80
2021/12/04 02:40:28;;;;;;;16.05;7.68;;;;;;;0.13;55.77;99564.09;7712410;32;38546;-80
2021/12/04 02:44:45;;;;;;;15.63;7.43;;;;;;;0.36;55.03;99571.66;7712408;32;37112;-80
2021/12/04 02:49:04;;;;;;;11.38;7.45;;;;;;;0.33;55.88;99572.94;7712333;32;39103;-79
2021/12/04 02:53:21;;;;;;;14.85;8.45;;;;;;;0.17;56.74;99573.34;7712305;32;39943;-80
2021/12/04 02:57:43;;;;;;;13.23;8.15;;;;;;;0.28;56.60;99564.69;7710866;32;37821;-80
2021/12/04 03:02:00;;;;;;;13.17;8.17;;;;;;;0.33;56.34;99556.03;7711975;32;36902;-80
2021/12/04 03:06:16;;;;;;;13.40;7.05;;;;;;;-0.13;57.41;99559.59;7712295;32;39978;-80
2021/12/04 03:10:33;;;;;;;15.43;7.43;;;;;;;-0.32;57.24;99562.06;7711842;32;39970;-80
2021/12/04 03:14:53;;;;;;;10.35;6.70;;;;;;;-0.23;56.30;99560.81;7711351;32;39113;-79
2021/12/04 03:19:09;;;;;;;9.88;6.82;;;;;;;-0.01;55.57;99558.75;7711063;32;37311;-80
2021/12/04 03:23:30;;;;;;;16.95;7.40;;;;;;;-0.03;55.52;99558.13;7711927;32;39271;-79
2021/12/04 03:27:49;;;;;;;15.80;7.60;;;;;;;-0.09;55.88;99567.00;7710694;32;39981;-80
2021/12/04 03:40:58;;;;;;;12.70;7.43;;;;;;;-0.07;56.08;99524.75;7711792;32;39358;-80
2021/12/04 03:45:15;;;;;;;13.02;7.80;;;;;;;-0.17;56.45;99516.31;7711587;32;42293;-79
2021/12/04 03:49:31;;;;;;;11.25;7.03;;;;;;;-0.52;57.29;99511.16;7711558;32;37763;-79
2021/12/04 03:53:48;;;;;;;11.48;7.40;;;;;;;-0.36;56.77;99514.47;7711592;32;37826;-80
2021/12/04 03:58:05;;;;;;;11.07;6.82;;;;;;;-0.48;57.05;99514.28;7711362;32;40066;-79
2021/12/04 04:02:21;;;;;;;15.18;7.82;;;;;;;-0.09;55.77;99510.72;7711568;32;39835;-79
2021/12/04 04:06:37;;;;;;;12.00;6.93;;;;;;;-0.30;56.55;99502.94;7711514;32;37576;-79
2021/12/04 04:10:54;;;;;;;25.55;14.23;;;;;;;-0.01;55.73;99507.81;7711277;32;37735;-79
2021/12/04 04:15:10;;;;;;;24.50;13.93;;;;;;;-0.07;55.36;99516.72;7710274;32;39474;-80
2021/12/04 04:19:27;;;;;;;19.95;9.25;;;;;;;-0.41;56.25;99501.72;7711146;32;40826;-80
2021/12/04 04:23:43;;;;;;;15.38;8.80;;;;;;;-0.61;59.48;99518.59;7711070;32;38715;-80
2021/12/04 04:27:59;;;;;;;15.13;7.25;;;;;;;-0.18;58.05;99511.97;7711222;32;37146;-79
2021/12/04 04:32:15;;;;;;;12.68;7.60;;;;;;;-0.05;57.30;99506.59;7711125;32;39906;-79
2021/12/04 05:13:04;;;;;;;13.07;8.10;;;;;;;-0.52;56.87;99500.47;7710220;32;40838;-80
2021/12/04 05:17:52;;;;;;;14.50;7.05;;;;;;;-0.43;56.42;99493.88;7709969;32;38671;-80
2021/12/04 05:21:59;;;;;;;12.98;7.62;;;;;;;-0.59;56.76;99487.09;7709813;32;37617;-79
2021/12/04 05:26:24;;;;;;;13.10;7.78;;;;;;;-0.55;57.14;99484.84;7711801;32;39815;-79
2021/12/04 05:30:40;;;;;;;13.65;7.60;;;;;;;-0.43;56.96;99475.13;7712200;32;39987;-79
2021/12/04 05:34:57;;;;;;;17.02;9.07;;;;;;;-0.50;57.38;99478.84;7713088;32;38744;-79
2021/12/04 05:39:13;;;;;;;18.75;8.77;;;;;;;-0.47;57.45;99471.22;7713104;32;37113;-79
2021/12/04 05:43:29;;;;;;;16.08;8.85;;;;;;;-0.36;57.48;99471.59;7713205;32;39159;-79
2021/12/04 05:47:54;;;;;;;15.38;8.52;;;;;;;-0.31;57.04;99471.81;7713115;32;40610;-80
2021/12/04 05:52:22;;;;;;;14.25;9.55;;;;;;;-0.25;56.51;99468.31;7713561;32;38023;-80
2021/12/04 05:56:38;;;;;;;15.57;8.70;;;;;;;-0.11;55.67;99463.75;7712865;32;37093;-79
2021/12/04 06:00:57;;;;;;;16.98;9.57;;;;;;;-0.47;56.58;99468.53;7712922;32;39245;-79
2021/12/04 06:05:15;;;;;;;14.77;8.52;;;;;;;-0.35;56.46;99458.00;7712850;32;39949;-79
2021/12/04 06:09:31;;;;;;;16.37;8.50;;;;;;;-0.30;56.58;99468.09;7711335;32;38573;-80
2021/12/04 06:13:47;;;;;;;15.57;9.65;;;;;;;-0.34;56.45;99458.84;7712934;32;37449;-80
2021/12/04 06:18:03;;;;;;;13.20;8.52;;;;;;;-0.61;56.76;99458.88;7712689;32;39051;-79
2021/12/04 06:22:38;;;;;;;23.23;12.98;;;;;;;-0.36;56.07;99474.28;7712620;32;39896;-79
2021/12/04 06:26:54;;;;;;;21.90;12.20;;;;;;;-0.46;56.76;99472.88;7712733;32;37918;-80
2021/12/04 06:31:10;;;;;;;15.80;9.40;;;;;;;-0.68;57.80;99479.47;7712470;32;37469;-79
2021/12/04 06:35:27;;;;;;;13.23;9.00;;;;;;;-0.51;57.22;99466.50;7712376;32;39357;-79
2021/12/04 06:39:44;;;;;;;16.52;8.77;;;;;;;-0.51;56.73;99464.62;7711953;32;40719;-79
2021/12/04 06:44:00;;;;;;;16.48;9.07;;;;;;;-0.58;57.49;99463.81;7711103;32;38629;-80
2021/12/04 06:48:20;;;;;;;14.18;9.20;;;;;;;-0.54;57.18;99464.22;7712258;32;37180;-80
2021/12/04 06:52:38;;;;;;;16.98;9.20;;;;;;;-0.68;56.46;99466.09;7712244;32;39418;-79
2021/12/04 06:56:54;;;;;;;16.33;8.88;;;;;;;-0.76;58.04;99462.59;7712088;32;40751;-79
2021/12/04 07:01:10;;;;;;;16.27;9.45;;;;;;;-0.57;57.68;99446.69;7712049;32;37790;-78
2021/12/04 07:05:27;;;;;;;20.75;10.60;;;;;;;-0.96;60.74;99440.34;7712084;32;37130;-79
2021/12/04 07:09:44;;;;;;;20.27;11.75;;;;;;;-0.62;60.37;99431.28;7710739;32;39281;-79
2021/12/04 07:14:00;;;;;;;22.92;11.45;;;;;;;-0.94;62.09;99430.25;7711985;32;39854;-79
2021/12/04 07:18:16;;;;;;;19.80;11.18;;;;;;;-0.59;60.99;99430.88;7711828;32;37924;-79
2021/12/04 07:22:32;;;;;;;19.45;11.25;;;;;;;-0.63;61.10;99423.44;7711918;32;37230;-79
2021/12/04 07:26:49;;;;;;;19.08;10.90;;;;;;;-0.31;60.02;99419.06;7711834;32;39247;-79
2021/12/04 07:31:06;;;;;;;16.98;10.35;;;;;;;-0.44;60.70;99421.78;7711751;32;39817;-79
2021/12/04 07:35:22;;;;;;;18.48;10.88;;;;;;;-0.53;60.30;99415.00;7711739;32;37995;-79
2021/12/04 07:39:38;;;;;;;18.90;10.63;;;;;;;-0.25;59.69;99407.50;7711590;32;37539;-79
2021/12/04 07:43:55;;;;;;;20.73;11.02;;;;;;;-0.68;61.22;99415.22;7711634;32;40074;-80
2021/12/04 07:48:11;;;;;;;17.42;11.12;;;;;;;-0.46;60.18;99399.75;7710399;32;40560;-80
2021/12/04 07:52:28;;;;;;;21.35;11.05;;;;;;;-0.29;60.37;99382.19;7711477;32;38428;-80
2021/12/04 07:56:44;;;;;;;18.33;11.10;;;;;;;-0.49;63.17;99398.28;7711440;32;37184;-78
2021/12/04 08:01:00;;;;;;;20.98;12.85;;;;;;;-0.21;60.94;99390.00;7711499;32;40242;-79
2021/12/04 08:05:18;;;;;;;20.00;12.40;;;;;;;-0.37;62.11;99395.78;7711455;32;40840;-78
2021/12/04 08:09:34;;;;;;;20.83;12.15;;;;;;;-0.06;61.90;99387.03;7711118;32;38006;-79
2021/12/04 08:13:50;;;;;;;24.10;13.88;;;;;;;0.37;60.70;99391.78;7711025;32;37344;-79
2021/12/04 08:18:08;;;;;;;21.33;13.48;;;;;;;0.42;60.37;99393.00;7711291;32;38185;-79
2021/12/04 08:22:24;;;;;;;23.50;13.75;;;;;;;0.69;59.16;99399.84;7711060;32;40827;-79
2021/12/04 08:26:43;;;;;;;22.20;12.98;;;;;;;0.40;59.77;99397.75;7711029;32;37853;-79
2021/12/04 08:30:59;;;;;;;22.58;13.50;;;;;;;0.75;58.80;99374.00;7710152;32;36981;-79
2021/12/04 08:35:18;;;;;;;22.33;13.60;;;;;;;1.37;57.37;99378.66;7711036;32;39012;-80
2021/12/04 08:39:35;;;;;;;23.38;14.32;;;;;;;1.06;58.46;99375.00;7710823;32;40765;-80
2021/12/04 08:43:53;;;;;;;21.17;13.45;;;;;;;1.37;60.18;99371.41;7710744;32;38627;-80
2021/12/04 08:48:10;;;;;;;19.27;12.30;;;;;;;1.78;58.84;99369.94;7710766;32;36254;-80
2021/12/04 08:52:26;;;;;;;19.90;13.00;;;;;;;2.14;56.64;99373.66;7710673;32;39273;-80
2021/12/04 08:56:42;;;;;;;21.62;12.07;;;;;;;2.17;55.76;99383.94;7710510;32;39988;-80
2021/12/04 09:01:02;;;;;;;20.90;12.45;;;;;;;1.94;56.71;99384.63;7709889;32;38721;-81
2021/12/04 09:05:21;;;;;;;20.20;10.75;;;;;;;2.31;55.88;99371.16;7710402;32;37609;-81
2021/12/04 09:09:38;;;;;;;19.20;11.98;;;;;;;2.30;55.38;99371.38;7710227;32;39932;-80
2021/12/04 09:14:11;;;;;;;18.77;11.02;;;;;;;2.45;55.28;99366.41;7709026;32;40009;-79
2021/12/04 09:18:27;;;;;;;18.10;9.82;;;;;;;3.08;52.20;99346.16;7709965;32;38654;-80
2021/12/04 09:22:45;;;;;;;15.15;8.93;;;;;;;3.22;51.14;99318.97;7710002;32;38069;-80
2021/12/04 09:31:54;;;;;;;18.20;10.15;;;;;;;3.57;49.38;99305.47;7709606;32;39953;-81
2021/12/04 10:03:37;;;;;;;19.52;11.60;;;;;;;3.49;51.67;99268.09;7708506;32;40091;-79
2021/12/04 10:35:04;;;;;;;20.90;11.00;;;;;;;4.85;45.54;99207.06;7712456;32;38058;-80
2021/12/04 10:39:20;;;;;;;18.95;11.20;;;;;;;4.92;45.15;99201.50;7712333;32;39264;-80
2021/12/04 10:43:37;;;;;;;18.42;11.02;;;;;;;4.47;46.82;99197.88;7712448;32;40160;-80
2021/12/04 10:47:59;;;;;;;18.52;11.73;;;;;;;4.93;45.63;99186.91;7712098;32;38149;-80
2021/12/04 11:24:44;;;;;;;26.10;13.60;;;;;;;5.90;45.04;99136.66;7711605;32;37881;-78
2021/12/04 11:38:19;;;;;;;27.98;14.32;;;;;;;7.27;41.61;99082.75;7711678;32;40041;-82
2021/12/04 11:42:41;;;;;;;26.95;14.23;;;;;;;7.33;42.57;99081.69;7711637;32;37664;-83
2021/12/04 11:46:58;;;;;;;23.23;14.35;;;;;;;7.43;42.29;99064.59;7710519;32;36965;-82
2021/12/04 11:51:23;;;;;;;26.42;14.43;;;;;;;7.80;39.93;99058.94;7711629;32;40072;-82
2021/12/04 11:55:44;;;;;;;22.52;14.35;;;;;;;7.43;40.56;99054.56;7710359;32;40708;-83
2021/12/04 12:00:17;;;;;;;24.58;13.32;;;;;;;7.93;42.29;99059.47;7710343;32;37935;-82
2021/12/04 12:04:38;;;;;;;24.58;13.38;;;;;;;8.43;39.33;99052.38;7710314;32;38182;-82
2021/12/04 12:09:05;;;;;;;22.23;12.93;;;;;;;8.00;40.57;99049.16;7711899;32;39386;-82
2021/12/04 12:13:56;;;;;;;22.40;12.13;;;;;;;8.76;38.77;99041.94;7710067;32;40800;-82
2021/12/04 12:19:26;;;;;;;20.92;12.88;;;;;;;10.50;35.66;99035.25;7890245;31;197793;-82
2021/12/04 12:37:51;;;;;;;36.47;21.12;;;;;;;10.59;34.00;99015.50;7867667;31;39664;-81
2021/12/04 12:42:07;;;;;;;26.70;15.00;;;;;;;10.32;34.38;99011.44;7867532;31;40765;-80
2021/12/04 12:46:39;;;;;;;21.83;13.43;;;;;;;11.18;34.07;99021.59;7867428;31;38630;-81
2021/12/04 12:51:06;;;;;;;22.92;12.73;;;;;;;11.44;32.53;99016.56;7867511;31;37769;-81
2021/12/04 12:55:23;;;;;;;24.30;12.75;;;;;;;11.18;32.45;99006.00;7867395;31;39023;-81
2021/12/04 13:13:33;;;;;;;23.10;12.43;;;;;;;11.98;30.20;99006.94;7867289;31;38830;-80
2021/12/04 13:17:51;;;;;;;20.12;12.27;;;;;;;11.43;31.61;99014.91;7866915;31;39666;-82
2021/12/04 13:22:12;;;;;;;21.90;13.10;;;;;;;10.44;33.17;99011.06;7865803;31;39187;-80
2021/12/04 13:26:31;;;;;;;23.33;13.43;;;;;;;10.17;34.13;99003.41;7866739;31;37214;-81
2021/12/04 13:30:47;;;;;;;23.00;14.43;;;;;;;9.82;34.87;99008.91;7848282;31;39879;-82
2021/12/04 13:35:12;;;;;;;26.48;13.15;;;;;;;8.94;36.18;99018.78;7847327;31;39624;-80
2021/12/04 13:39:29;;;;;;;22.65;13.23;;;;;;;8.05;38.05;99016.56;7848208;31;37845;-82
2021/12/04 13:43:55;;;;;;;22.87;13.15;;;;;;;8.00;38.09;99013.88;7848351;31;37089;-82
2021/12/04 13:48:11;;;;;;;25.10;12.85;;;;;;;7.65;39.00;99004.69;7848527;31;39137;-82
2021/12/04 13:52:31;;;;;;;22.77;12.35;;;;;;;7.76;38.85;98998.19;7848267;31;39819;-82
2021/12/04 13:56:48;;;;;;;22.02;11.95;;;;;;;8.45;37.27;98983.12;7848085;31;37794;-82
2021/12/04 14:01:04;;;;;;;20.77;11.63;;;;;;;9.92;34.58;98964.44;7848105;31;37170;-84
2021/12/04 14:05:23;;;;;;;18.33;10.10;;;;;;;10.88;31.21;98948.06;7847797;31;39168;-81
2021/12/04 14:09:39;;;;;;;20.20;11.35;;;;;;;13.44;26.52;98914.19;7848008;31;39270;-80
2021/12/04 14:13:55;;;;;;;20.73;10.73;;;;;;;11.07;29.68;98915.34;7847875;31;37821;-80
2021/12/04 14:18:19;;;;;;;20.27;10.35;;;;;;;9.95;32.28;98929.28;7847723;31;36785;-80
2021/12/04 14:22:46;;;;;;;17.30;10.57;;;;;;;9.33;33.67;98920.91;7847896;31;39809;-80
2021/12/04 14:27:04;;;;;;;21.35;11.12;;;;;;;7.77;36.17;98904.81;7847818;31;40672;-80
2021/12/04 14:31:24;;;;;;;20.50;11.20;;;;;;;7.53;37.15;98910.81;7847753;31;37787;-82
2021/12/04 14:35:44;;;;;;;19.30;10.57;;;;;;;6.89;38.70;98906.75;7847581;31;37915;-82
2021/12/04 14:40:00;;;;;;;18.20;11.35;;;;;;;6.33;39.70;98914.72;7846567;31;39182;-82
2021/12/04 14:44:16;;;;;;;20.40;11.40;;;;;;;6.10;40.77;98937.66;7847383;31;40687;-82
2021/12/04 14:48:39;;;;;;;23.12;11.63;;;;;;;5.55;42.35;98951.34;7847279;31;38616;-81
2021/12/04 14:53:02;;;;;;;17.23;10.65;;;;;;;5.46;42.19;98936.69;7847495;31;37939;-82
2021/12/04 14:57:23;;;;;;;20.10;12.27;;;;;;;5.43;42.83;98948.00;7847358;31;39818;-81
2021/12/04 15:01:39;;;;;;;22.50;12.88;;;;;;;5.42;43.12;98949.09;7847341;31;40754;-81
2021/12/04 15:05:59;;;;;;;21.90;12.02;;;;;;;5.02;44.50;98956.59;7847288;31;38196;-80
2021/12/04 15:10:19;;;;;;;22.30;12.05;;;;;;;4.92;44.91;98956.50;7847873;31;35066;-82
2021/12/04 15:14:35;;;;;;;22.65;12.95;;;;;;;4.80;45.46;98967.44;7846899;31;39075;-81
2021/12/04 15:18:51;;;;;;;21.80;13.62;;;;;;;4.54;46.66;98963.66;7846991;31;40780;-82
2021/12/04 15:23:20;;;;;;;25.17;13.77;;;;;;;4.31;47.41;98959.31;7847081;31;38655;-81
2021/12/04 15:27:37;;;;;;;24.65;13.98;;;;;;;4.36;47.75;98958.56;7847038;31;37078;-80
2021/12/04 15:31:55;;;;;;;26.65;15.45;;;;;;;4.14;49.00;98959.38;7847041;31;39684;-81
2021/12/04 15:36:23;;;;;;;30.62;15.80;;;;;;;3.21;51.36;98957.19;7846968;31;40345;-81
2021/12/04 15:40:50;;;;;;;25.52;13.90;;;;;;;3.25;51.63;98957.53;7846924;31;37929;-81
2021/12/04 15:53:57;;;;;;;27.00;15.10;;;;;;;3.16;52.18;98967.88;7846274;31;39921;-80
2021/12/04 15:58:19;;;;;;;24.80;14.77;;;;;;;3.33;52.25;98976.78;7846491;31;38460;-81
2021/12/04 16:02:40;;;;;;;28.40;15.48;;;;;;;3.32;52.37;98971.66;7846683;31;37087;-80
2021/12/04 16:06:58;;;;;;;25.45;15.68;;;;;;;3.24;52.76;98966.66;7846480;31;40116;-79
2021/12/04 16:11:16;;;;;;;25.55;15.57;;;;;;;3.14;53.34;98968.12;7846251;31;40108;-80
2021/12/04 16:15:32;;;;;;;27.48;15.93;;;;;;;3.22;53.16;98968.78;7846133;31;38825;-79
2021/12/04 16:19:52;;;;;;;29.05;15.98;;;;;;;3.08;53.44;98962.91;7844851;31;37186;-79
2021/12/04 16:24:08;;;;;;;29.15;16.45;;;;;;;2.82;54.56;98954.34;7846090;31;39181;-80
2021/12/04 16:41:52;;;;;;;31.52;18.52;;;;;;;2.77;55.73;98949.69;7845584;31;39314;-79
2021/12/04 16:46:17;;;;;;;31.58;18.15;;;;;;;2.78;55.82;98945.94;7845421;31;40786;-80
2021/12/04 16:55:26;;;;;;;36.33;17.92;;;;;;;2.39;57.51;98947.63;7845331;31;37790;-80
2021/12/04 17:00:06;;;;;;;30.25;17.15;;;;;;;2.57;56.99;98942.06;7844793;31;39575;-80
2021/12/04 17:04:24;;;;;;;34.13;19.05;;;;;;;2.77;56.45;98940.81;7847300;31;40012;-80
2021/12/04 17:08:46;;;;;;;;;;;;;;;2.76;56.77;98947.22;7849142;31;37877;-79
2021/12/04 17:13:02;;;;;;;31.45;18.25;;;;;;;2.70;57.05;98948.22;7849002;31;37375;-79
2021/12/04 17:17:25;;;;;;;31.35;18.35;;;;;;;2.53;57.45;98948.16;7848546;31;39912;-80
2021/12/04 17:21:44;;;;;;;36.70;21.13;;;;;;;2.28;58.11;98960.06;7848651;31;39701;-80
2021/12/04 17:26:00;;;;;;;33.63;18.77;;;;;;;2.81;57.15;98950.84;7848539;31;37960;-79
2021/12/04 17:30:18;;;;;;;36.30;21.12;;;;;;;2.73;57.40;98945.84;7848581;31;37897;-79
2021/12/04 17:34:34;;;;;;;34.22;19.08;;;;;;;2.54;58.16;98953.31;7848481;31;39854;-79
2021/12/04 17:38:52;;;;;;;36.97;19.30;;;;;;;2.73;57.49;98947.75;7848107;31;39970;-78
2021/12/04 17:43:09;;;;;;;40.00;20.10;;;;;;;3.01;56.86;98950.38;7848285;31;38518;-79
2021/12/04 17:47:27;;;;;;;38.63;21.35;;;;;;;2.70;57.97;98956.28;7847749;31;37106;-79
2021/12/04 17:51:45;;;;;;;35.78;19.52;;;;;;;2.73;57.81;98961.19;7848552;31;38775;-79
2021/12/04 17:56:01;;;;;;;30.88;18.98;;;;;;;3.29;56.16;98946.00;7847647;31;40773;-79
2021/12/04 18:00:23;;;;;;;34.25;18.20;;;;;;;2.99;56.96;98944.44;7847253;31;37657;-79
2021/12/04 18:04:43;;;;;;;33.47;18.40;;;;;;;2.87;57.33;98935.59;7846106;31;37186;-78
2021/12/04 18:09:00;;;;;;;35.17;18.85;;;;;;;3.05;56.79;98928.38;7847789;31;38954;-80
2021/12/04 18:13:20;;;;;;;34.55;18.90;;;;;;;3.11;56.58;98919.31;7845917;31;39864;-79
2021/12/04 18:17:36;;;;;;;32.20;18.23;;;;;;;2.92;57.25;98926.81;7847640;31;38084;-81
2021/12/04 18:21:54;;;;;;;33.10;19.85;;;;;;;3.25;55.99;98923.31;7847864;31;37863;-79
2021/12/04 18:26:11;;;;;;;34.55;20.23;;;;;;;2.70;57.56;98924.81;7847593;31;39895;-79
2021/12/04 18:30:29;;;;;;;32.80;19.20;;;;;;;2.59;58.16;98931.88;7847021;31;39968;-80
2021/12/04 18:34:45;;;;;;;36.05;17.85;;;;;;;2.50;58.23;98925.25;7844878;31;37953;-78
2021/12/04 18:39:07;;;;;;;32.65;18.52;;;;;;;2.81;57.56;98915.03;7846725;31;37339;-79
2021/12/04 18:43:24;;;;;;;32.35;18.75;;;;;;;2.98;57.31;98899.72;7845536;31;39200;-79
2021/12/04 18:47:40;;;;;;;30.92;17.40;;;;;;;2.94;57.61;98909.34;7846356;31;39992;-79
2021/12/04 18:51:58;;;;;;;27.08;16.52;;;;;;;2.72;58.60;98911.91;7847379;31;37777;-80
2021/12/04 18:56:15;;;;;;;29.80;16.42;;;;;;;2.84;58.44;98913.75;7846398;31;37103;-79
2021/12/04 19:00:31;;;;;;;28.65;16.35;;;;;;;3.09;57.71;98905.28;7847350;31;39235;-79
2021/12/04 19:04:48;;;;;;;32.35;17.60;;;;;;;2.87;57.85;98897.91;7847362;31;39860;-80
2021/12/04 19:09:07;;;;;;;26.45;16.52;;;;;;;2.78;58.62;98900.19;7847362;31;37943;-79
2021/12/04 19:13:23;;;;;;;30.80;16.55;;;;;;;2.75;59.04;98908.75;7826143;31;37204;-78
2021/12/04 19:17:40;;;;;;;30.65;15.57;;;;;;;3.12;57.66;98902.91;7818409;32;39227;-79
2021/12/04 19:21:58;;;;;;;26.73;15.75;;;;;;;3.05;57.70;98888.78;7818418;32;40716;-79
2021/12/04 19:26:14;;;;;;;27.35;15.85;;;;;;;3.03;57.83;98895.47;7818856;32;37810;-78
2021/12/04 19:30:38;;;;;;;29.15;15.98;;;;;;;3.20;57.52;98896.28;7819529;32;37204;-80
2021/12/04 19:49:05;;;;;;;30.58;17.00;;;;;;;3.11;58.01;98887.00;7819262;32;37071;-80
2021/12/04 19:53:38;;;;;;;33.00;18.45;;;;;;;3.02;58.40;98881.22;7818944;32;39329;-80
2021/12/04 19:57:56;;;;;;;29.90;16.57;;;;;;;2.91;58.76;98884.78;7818937;32;40009;-79
2021/12/04 20:15:42;;;;;;;27.13;15.82;;;;;;;3.03;58.78;98890.91;7818548;32;40049;-79
2021/12/04 20:19:59;;;;;;;27.65;16.62;;;;;;;2.97;58.96;98887.31;7817088;32;37905;-80
2021/12/04 20:24:16;;;;;;;27.15;17.05;;;;;;;3.01;58.81;98888.44;7817276;32;38284;-79
2021/12/04 21:09:58;;;;;;;28.58;17.35;;;;;;;2.91;58.78;98823.66;7821162;32;40800;-80
2021/12/04 21:50:37;;;;;;;32.78;19.02;;;;;;;2.57;60.04;98823.66;7844852;31;37893;-77
2021/12/04 21:54:55;;;;;;;30.65;16.75;;;;;;;2.82;59.08;98820.56;7846252;31;37026;-79
2021/12/04 22:18:12;;;;;;;30.25;17.58;;;;;;;2.65;59.17;98798.22;7844224;31;39189;-79
2021/12/04 22:26:53;;;;;;;30.70;17.30;;;;;;;2.64;59.68;98785.84;7844611;31;37964;-79
2021/12/04 22:58:29;;;;;;;30.73;18.35;;;;;;;2.40;60.82;98780.59;7844633;31;40890;-77
2021/12/04 23:02:48;;;;;;;40.00;17.77;;;;;;;2.22;61.63;98786.19;7844011;31;38785;-78
2021/12/04 23:16:39;;;;;;;31.98;17.60;;;;;;;2.36;60.81;98763.31;7842821;31;39714;-78
2021/12/04 23:34:56;;;;;;;32.45;17.90;;;;;;;2.64;59.58;98769.69;7843481;31;39978;-78
2021/12/04 23:48:43;;;;;;;28.30;16.33;;;;;;;2.69;59.15;98772.47;7843101;31;39780;-78
